sensor_id;sensor_type;location;lat;lon;timestamp;pressure;altitude;pressure_sealevel;temperature;humidity
12213;BME280;6169;44.158;22.788;2022-09-21T00:01:04;101171.50;;;14.59;51.47
12213;BME280;6169;44.158;22.788;2022-09-21T00:06:09;101169.78;;;14.53;51.54
12213;BME280;6169;44.158;22.788;2022-09-21T00:11:12;101171.50;;;14.59;50.97
12213;BME280;6169;44.158;22.788;2022-09-21T00:16:15;101164.63;;;15.02;49.89
12213;BME280;6169;44.158;22.788;2022-09-21T00:21:19;101160.88;;;15.25;48.84
12213;BME280;6169;44.158;22.788;2022-09-21T00:26:24;101160.31;;;15.23;49.42
12213;BME280;6169;44.158;22.788;2022-09-21T00:31:28;101160.22;;;15.18;49.92
12213;BME280;6169;44.158;22.788;2022-09-21T00:36:33;101162.97;;;15.01;49.95
12213;BME280;6169;44.158;22.788;2022-09-21T00:41:35;101161.66;;;14.87;50.11
12213;BME280;6169;44.158;22.788;2022-09-21T00:46:38;101164.22;;;14.94;50.12
12213;BME280;6169;44.158;22.788;2022-09-21T00:51:43;101164.47;;;14.75;50.54
12213;BME280;6169;44.158;22.788;2022-09-21T00:56:46;101159.97;;;14.86;49.72
12213;BME280;6169;44.158;22.788;2022-09-21T01:01:50;101159.56;;;14.94;49.08
12213;BME280;6169;44.158;22.788;2022-09-21T01:06:55;101161.72;;;14.92;49.00
12213;BME280;6169;44.158;22.788;2022-09-21T01:12:09;101161.25;;;14.67;49.86
12213;BME280;6169;44.158;22.788;2022-09-21T01:17:19;101160.63;;;14.76;49.52
12213;BME280;6169;44.158;22.788;2022-09-21T01:22:28;101167.34;;;15.19;48.33
12213;BME280;6169;44.158;22.788;2022-09-21T01:27:42;101163.78;;;15.02;48.67
12213;BME280;6169;44.158;22.788;2022-09-21T01:32:55;101174.00;;;14.32;50.63
12213;BME280;6169;44.158;22.788;2022-09-21T01:38:00;101171.41;;;14.83;49.50
12213;BME280;6169;44.158;22.788;2022-09-21T01:43:06;101178.38;;;15.08;48.70
12213;BME280;6169;44.158;22.788;2022-09-21T01:48:12;101175.97;;;14.94;48.73
12213;BME280;6169;44.158;22.788;2022-09-21T01:53:17;101181.28;;;15.57;47.52
12213;BME280;6169;44.158;22.788;2022-09-21T01:58:26;101180.69;;;14.82;49.75
12213;BME280;6169;44.158;22.788;2022-09-21T02:03:36;101187.91;;;15.22;48.38
12213;BME280;6169;44.158;22.788;2022-09-21T02:08:40;101185.84;;;15.68;46.82
12213;BME280;6169;44.158;22.788;2022-09-21T02:13:45;101188.16;;;15.37;48.01
12213;BME280;6169;44.158;22.788;2022-09-21T02:19:02;101195.84;;;15.23;48.25
12213;BME280;6169;44.158;22.788;2022-09-21T02:24:13;101194.28;;;15.11;48.43
12213;BME280;6169;44.158;22.788;2022-09-21T02:29:26;101187.25;;;14.81;49.02
12213;BME280;6169;44.158;22.788;2022-09-21T02:34:41;101185.16;;;14.59;50.82
12213;BME280;6169;44.158;22.788;2022-09-21T02:39:53;101176.97;;;14.88;49.93
12213;BME280;6169;44.158;22.788;2022-09-21T02:45:04;101174.06;;;15.12;48.96
12213;BME280;6169;44.158;22.788;2022-09-21T02:50:13;101174.53;;;14.92;49.77
12213;BME280;6169;44.158;22.788;2022-09-21T02:55:18;101171.81;;;15.25;48.76
12213;BME280;6169;44.158;22.788;2022-09-21T03:00:21;101177.44;;;15.36;48.61
12213;BME280;6169;44.158;22.788;2022-09-21T03:05:26;101176.22;;;15.10;48.52
12213;BME280;6169;44.158;22.788;2022-09-21T03:10:29;101185.47;;;15.25;48.22
12213;BME280;6169;44.158;22.788;2022-09-21T03:15:32;101174.41;;;14.98;49.20
12213;BME280;6169;44.158;22.788;2022-09-21T03:20:36;101181.25;;;14.55;51.74
12213;BME280;6169;44.158;22.788;2022-09-21T03:25:42;101174.72;;;15.19;50.48
12213;BME280;6169;44.158;22.788;2022-09-21T03:30:44;101176.06;;;14.99;50.52
12213;BME280;6169;44.158;22.788;2022-09-21T03:35:48;101176.38;;;15.20;49.65
12213;BME280;6169;44.158;22.788;2022-09-21T03:40:51;101174.72;;;15.02;50.88
12213;BME280;6169;44.158;22.788;2022-09-21T03:45:54;101177.97;;;14.99;49.85
12213;BME280;6169;44.158;22.788;2022-09-21T03:50:59;101179.66;;;14.43;51.97
12213;BME280;6169;44.158;22.788;2022-09-21T03:56:01;101180.22;;;14.73;51.51
12213;BME280;6169;44.158;22.788;2022-09-21T04:01:03;101188.09;;;14.70;51.54
12213;BME280;6169;44.158;22.788;2022-09-21T04:06:10;101191.78;;;14.75;51.40
12213;BME280;6169;44.158;22.788;2022-09-21T04:11:14;101196.19;;;14.65;51.48
12213;BME280;6169;44.158;22.788;2022-09-21T04:16:17;101208.34;;;14.86;51.17
12213;BME280;6169;44.158;22.788;2022-09-21T04:21:21;101209.47;;;14.73;51.17
12213;BME280;6169;44.158;22.788;2022-09-21T04:26:26;101216.75;;;14.67;50.79
12213;BME280;6169;44.158;22.788;2022-09-21T04:31:29;101217.47;;;14.63;51.63
12213;BME280;6169;44.158;22.788;2022-09-21T04:36:35;101223.25;;;14.66;50.93
12213;BME280;6169;44.158;22.788;2022-09-21T04:41:37;101230.91;;;14.64;50.54
12213;BME280;6169;44.158;22.788;2022-09-21T04:46:39;101225.00;;;14.44;50.92
12213;BME280;6169;44.158;22.788;2022-09-21T04:51:43;101223.59;;;14.01;52.40
12213;BME280;6169;44.158;22.788;2022-09-21T04:56:46;101226.19;;;14.07;52.74
12213;BME280;6169;44.158;22.788;2022-09-21T05:01:48;101226.72;;;13.81;53.73
12213;BME280;6169;44.158;22.788;2022-09-21T05:06:52;101220.31;;;13.87;54.76
12213;BME280;6169;44.158;22.788;2022-09-21T05:11:54;101217.25;;;14.24;54.32
12213;BME280;6169;44.158;22.788;2022-09-21T05:16:57;101223.25;;;14.37;53.40
12213;BME280;6169;44.158;22.788;2022-09-21T05:22:00;101232.00;;;14.51;53.46
12213;BME280;6169;44.158;22.788;2022-09-21T05:27:03;101239.72;;;14.83;52.48
12213;BME280;6169;44.158;22.788;2022-09-21T05:32:11;101221.94;;;15.14;51.83
12213;BME280;6169;44.158;22.788;2022-09-21T05:37:31;101233.56;;;15.21;52.30
12213;BME280;6169;44.158;22.788;2022-09-21T05:42:37;101218.66;;;15.12;52.58
12213;BME280;6169;44.158;22.788;2022-09-21T05:47:52;101229.72;;;15.56;51.40
12213;BME280;6169;44.158;22.788;2022-09-21T05:53:11;101236.34;;;15.77;51.45
12213;BME280;6169;44.158;22.788;2022-09-21T05:58:21;101238.75;;;15.23;52.34
12213;BME280;6169;44.158;22.788;2022-09-21T06:03:29;101232.56;;;15.44;51.35
12213;BME280;6169;44.158;22.788;2022-09-21T06:08:33;101231.16;;;15.98;49.81
12213;BME280;6169;44.158;22.788;2022-09-21T06:13:36;101234.59;;;16.10;49.52
12213;BME280;6169;44.158;22.788;2022-09-21T06:18:39;101236.72;;;16.03;48.97
12213;BME280;6169;44.158;22.788;2022-09-21T06:23:43;101243.25;;;16.02;48.59
12213;BME280;6169;44.158;22.788;2022-09-21T06:28:46;101247.28;;;16.16;48.58
12213;BME280;6169;44.158;22.788;2022-09-21T06:33:48;101253.63;;;16.44;47.60
12213;BME280;6169;44.158;22.788;2022-09-21T06:38:52;101248.41;;;16.91;46.45
12213;BME280;6169;44.158;22.788;2022-09-21T06:43:54;101251.38;;;16.85;46.55
12213;BME280;6169;44.158;22.788;2022-09-21T06:48:57;101251.56;;;17.05;45.76
12213;BME280;6169;44.158;22.788;2022-09-21T06:54:01;101271.69;;;16.89;45.12
12213;BME280;6169;44.158;22.788;2022-09-21T06:59:04;101291.72;;;16.89;44.68
12213;BME280;6169;44.158;22.788;2022-09-21T07:04:08;101271.81;;;18.06;42.65
12213;BME280;6169;44.158;22.788;2022-09-21T07:09:12;101269.66;;;17.70;43.23
12213;BME280;6169;44.158;22.788;2022-09-21T07:14:14;101274.31;;;17.70;42.62
12213;BME280;6169;44.158;22.788;2022-09-21T07:19:16;101279.06;;;17.42;42.88
12213;BME280;6169;44.158;22.788;2022-09-21T07:24:20;101266.91;;;17.65;43.00
12213;BME280;6169;44.158;22.788;2022-09-21T07:29:23;101269.81;;;17.21;42.49
12213;BME280;6169;44.158;22.788;2022-09-21T07:34:25;101283.69;;;17.37;41.96
12213;BME280;6169;44.158;22.788;2022-09-21T07:39:29;101266.50;;;17.46;41.66
12213;BME280;6169;44.158;22.788;2022-09-21T07:44:32;101261.06;;;17.99;39.13
12213;BME280;6169;44.158;22.788;2022-09-21T07:49:34;101283.53;;;17.48;40.26
12213;BME280;6169;44.158;22.788;2022-09-21T07:54:38;101290.22;;;17.36;40.04
12213;BME280;6169;44.158;22.788;2022-09-21T07:59:40;101276.06;;;17.81;38.68
12213;BME280;6169;44.158;22.788;2022-09-21T08:04:43;101273.13;;;17.98;38.12
12213;BME280;6169;44.158;22.788;2022-09-21T08:09:47;101282.50;;;18.02;37.69
12213;BME280;6169;44.158;22.788;2022-09-21T08:14:50;101280.25;;;18.52;35.68
12213;BME280;6169;44.158;22.788;2022-09-21T08:19:52;101288.25;;;18.53;35.63
12213;BME280;6169;44.158;22.788;2022-09-21T08:24:56;101299.22;;;18.48;35.80
12213;BME280;6169;44.158;22.788;2022-09-21T08:29:59;101291.59;;;18.66;35.47
12213;BME280;6169;44.158;22.788;2022-09-21T08:35:02;101305.47;;;19.07;35.05
12213;BME280;6169;44.158;22.788;2022-09-21T08:40:08;101295.16;;;18.66;36.20
12213;BME280;6169;44.158;22.788;2022-09-21T08:45:14;101306.19;;;18.13;37.31
12213;BME280;6169;44.158;22.788;2022-09-21T08:50:33;101292.56;;;18.29;37.25
12213;BME280;6169;44.158;22.788;2022-09-21T08:55:38;101293.22;;;18.56;36.40
12213;BME280;6169;44.158;22.788;2022-09-21T09:00:41;101284.56;;;19.21;35.01
12213;BME280;6169;44.158;22.788;2022-09-21T09:05:48;101292.81;;;19.16;35.20
12213;BME280;6169;44.158;22.788;2022-09-21T09:11:01;101278.25;;;19.20;35.37
12213;BME280;6169;44.158;22.788;2022-09-21T09:16:15;101292.28;;;19.03;35.08
12213;BME280;6169;44.158;22.788;2022-09-21T09:21:22;101259.50;;;19.48;34.84
12213;BME280;6169;44.158;22.788;2022-09-21T09:26:31;101262.25;;;19.53;34.68
12213;BME280;6169;44.158;22.788;2022-09-21T09:31:35;101261.72;;;19.31;34.91
12213;BME280;6169;44.158;22.788;2022-09-21T09:36:43;101254.00;;;19.53;34.67
12213;BME280;6169;44.158;22.788;2022-09-21T09:42:03;101238.88;;;19.25;34.13
12213;BME280;6169;44.158;22.788;2022-09-21T09:47:22;101244.09;;;19.57;34.48
12213;BME280;6169;44.158;22.788;2022-09-21T09:52:27;101238.63;;;20.32;33.09
12213;BME280;6169;44.158;22.788;2022-09-21T09:57:32;101244.78;;;20.19;33.01
12213;BME280;6169;44.158;22.788;2022-09-21T10:02:45;101248.22;;;20.55;33.12
12213;BME280;6169;44.158;22.788;2022-09-21T10:07:49;101243.84;;;19.48;34.04
12213;BME280;6169;44.158;22.788;2022-09-21T10:12:55;101235.41;;;20.15;32.81
12213;BME280;6169;44.158;22.788;2022-09-21T10:18:02;101237.59;;;20.23;31.07
12213;BME280;6169;44.158;22.788;2022-09-21T10:23:11;101229.34;;;20.18;31.00
12213;BME280;6169;44.158;22.788;2022-09-21T10:28:16;101222.06;;;21.26;29.93
12213;BME280;6169;44.158;22.788;2022-09-21T10:33:20;101217.91;;;19.75;32.50
12213;BME280;6169;44.158;22.788;2022-09-21T10:38:25;101218.00;;;20.79;31.64
12213;BME280;6169;44.158;22.788;2022-09-21T10:43:33;101217.81;;;21.00;31.52
12213;BME280;6169;44.158;22.788;2022-09-21T10:48:37;101221.56;;;20.30;32.61
12213;BME280;6169;44.158;22.788;2022-09-21T10:53:47;101213.97;;;20.02;33.55
12213;BME280;6169;44.158;22.788;2022-09-21T10:59:20;101223.66;;;19.89;33.53
12213;BME280;6169;44.158;22.788;2022-09-21T11:04:31;101220.44;;;20.36;32.88
12213;BME280;6169;44.158;22.788;2022-09-21T11:09:40;101231.63;;;20.01;33.27
12213;BME280;6169;44.158;22.788;2022-09-21T11:14:51;101227.63;;;19.32;34.85
12213;BME280;6169;44.158;22.788;2022-09-21T11:20:02;101227.28;;;18.77;36.30
12213;BME280;6169;44.158;22.788;2022-09-21T11:25:22;101221.69;;;18.41;36.30
12213;BME280;6169;44.158;22.788;2022-09-21T11:30:49;101227.19;;;18.46;36.49
12213;BME280;6169;44.158;22.788;2022-09-21T11:36:01;101225.91;;;18.79;36.11
12213;BME280;6169;44.158;22.788;2022-09-21T11:41:19;101228.16;;;18.98;35.88
12213;BME280;6169;44.158;22.788;2022-09-21T11:46:35;101234.13;;;18.74;36.88
12213;BME280;6169;44.158;22.788;2022-09-21T11:51:53;101232.28;;;19.26;36.59
12213;BME280;6169;44.158;22.788;2022-09-21T11:57:02;101210.81;;;19.48;35.46
12213;BME280;6169;44.158;22.788;2022-09-21T12:02:39;101217.38;;;19.63;36.70
12213;BME280;6169;44.158;22.788;2022-09-21T12:07:58;101214.94;;;19.31;37.64
12213;BME280;6169;44.158;22.788;2022-09-21T12:13:12;101217.94;;;18.73;38.63
12213;BME280;6169;44.158;22.788;2022-09-21T12:18:25;101206.94;;;19.49;37.45
12213;BME280;6169;44.158;22.788;2022-09-21T12:23:40;101219.63;;;19.04;38.01
12213;BME280;6169;44.158;22.788;2022-09-21T12:28:46;101205.03;;;18.99;37.58
12213;BME280;6169;44.158;22.788;2022-09-21T12:33:54;101202.44;;;19.89;35.84
12213;BME280;6169;44.158;22.788;2022-09-21T12:39:00;101199.13;;;19.92;35.84
12213;BME280;6169;44.158;22.788;2022-09-21T12:44:14;101196.75;;;18.89;36.81
12213;BME280;6169;44.158;22.788;2022-09-21T12:49:26;101194.47;;;18.40;38.09
12213;BME280;6169;44.158;22.788;2022-09-21T12:54:34;101207.94;;;17.78;39.64
12213;BME280;6169;44.158;22.788;2022-09-21T12:59:43;101207.16;;;18.66;38.16
12213;BME280;6169;44.158;22.788;2022-09-21T13:04:54;101210.50;;;18.78;37.24
12213;BME280;6169;44.158;22.788;2022-09-21T13:10:14;101210.78;;;19.54;36.71
12213;BME280;6169;44.158;22.788;2022-09-21T13:15:23;101206.38;;;18.91;36.66
12213;BME280;6169;44.158;22.788;2022-09-21T13:20:33;101206.06;;;19.59;35.99
12213;BME280;6169;44.158;22.788;2022-09-21T13:25:36;101205.03;;;20.30;34.29
12213;BME280;6169;44.158;22.788;2022-09-21T13:30:40;101211.13;;;20.27;34.92
12213;BME280;6169;44.158;22.788;2022-09-21T13:41:25;101207.91;;;20.99;34.20
12213;BME280;6169;44.158;22.788;2022-09-21T13:46:51;101200.28;;;20.86;31.83
12213;BME280;6169;44.158;22.788;2022-09-21T13:51:59;101203.22;;;20.60;32.43
12213;BME280;6169;44.158;22.788;2022-09-21T13:57:05;101188.94;;;20.92;32.65
12213;BME280;6169;44.158;22.788;2022-09-21T14:02:27;101188.00;;;21.02;31.78
12213;BME280;6169;44.158;22.788;2022-09-21T14:07:34;101184.09;;;21.08;31.35
12213;BME280;6169;44.158;22.788;2022-09-21T14:12:41;101184.44;;;21.01;31.66
12213;BME280;6169;44.158;22.788;2022-09-21T14:23:27;101166.59;;;20.89;32.34
12213;BME280;6169;44.158;22.788;2022-09-21T14:28:37;101157.63;;;20.73;32.52
12213;BME280;6169;44.158;22.788;2022-09-21T14:33:44;101153.22;;;20.72;32.71
12213;BME280;6169;44.158;22.788;2022-09-21T14:38:52;101152.88;;;21.42;31.59
12213;BME280;6169;44.158;22.788;2022-09-21T14:44:00;101165.28;;;20.42;32.04
12213;BME280;6169;44.158;22.788;2022-09-21T14:49:20;101162.75;;;20.90;31.84
12213;BME280;6169;44.158;22.788;2022-09-21T14:54:38;101176.72;;;20.64;32.34
12213;BME280;6169;44.158;22.788;2022-09-21T14:59:56;101173.69;;;20.16;32.77
12213;BME280;6169;44.158;22.788;2022-09-21T15:05:13;101175.56;;;20.26;32.16
12213;BME280;6169;44.158;22.788;2022-09-21T15:10:28;101179.66;;;21.12;31.19
12213;BME280;6169;44.158;22.788;2022-09-21T15:15:55;101184.19;;;20.09;32.58
12213;BME280;6169;44.158;22.788;2022-09-21T15:21:02;101181.59;;;19.47;33.28
12213;BME280;6169;44.158;22.788;2022-09-21T15:26:11;101189.53;;;19.64;33.63
12213;BME280;6169;44.158;22.788;2022-09-21T15:31:16;101191.78;;;19.47;34.42
12213;BME280;6169;44.158;22.788;2022-09-21T15:36:20;101200.91;;;19.22;34.73
12213;BME280;6169;44.158;22.788;2022-09-21T15:41:42;101196.34;;;18.24;36.80
12213;BME280;6169;44.158;22.788;2022-09-21T15:46:49;101204.06;;;18.22;37.17
12213;BME280;6169;44.158;22.788;2022-09-21T15:51:54;101210.69;;;18.31;37.34
12213;BME280;6169;44.158;22.788;2022-09-21T15:57:03;101206.16;;;18.09;38.56
12213;BME280;6169;44.158;22.788;2022-09-21T16:02:11;101211.63;;;17.99;38.83
12213;BME280;6169;44.158;22.788;2022-09-21T16:07:30;101228.25;;;18.25;38.53
12213;BME280;6169;44.158;22.788;2022-09-21T16:12:41;101226.78;;;18.12;38.75
12213;BME280;6169;44.158;22.788;2022-09-21T16:18:01;101171.88;;;17.59;39.28
12213;BME280;6169;44.158;22.788;2022-09-21T16:23:10;101236.34;;;18.04;39.17
12213;BME280;6169;44.158;22.788;2022-09-21T16:28:33;101241.25;;;17.49;40.56
12213;BME280;6169;44.158;22.788;2022-09-21T16:33:38;101243.72;;;17.51;40.80
12213;BME280;6169;44.158;22.788;2022-09-21T16:38:45;101245.75;;;17.34;40.78
12213;BME280;6169;44.158;22.788;2022-09-21T16:43:49;101246.66;;;17.07;41.48
12213;BME280;6169;44.158;22.788;2022-09-21T16:48:54;101245.03;;;17.11;41.24
12213;BME280;6169;44.158;22.788;2022-09-21T16:53:56;101249.78;;;17.21;41.31
12213;BME280;6169;44.158;22.788;2022-09-21T16:59:08;101255.28;;;16.94;41.99
12213;BME280;6169;44.158;22.788;2022-09-21T17:04:15;101256.53;;;16.54;43.00
12213;BME280;6169;44.158;22.788;2022-09-21T17:09:24;101257.84;;;16.73;42.56
12213;BME280;6169;44.158;22.788;2022-09-21T17:14:29;101268.91;;;16.56;42.87
12213;BME280;6169;44.158;22.788;2022-09-21T17:19:34;101270.66;;;16.46;43.42
12213;BME280;6169;44.158;22.788;2022-09-21T17:24:37;101270.72;;;16.29;44.26
12213;BME280;6169;44.158;22.788;2022-09-21T17:29:41;101270.50;;;16.35;44.21
12213;BME280;6169;44.158;22.788;2022-09-21T17:34:53;101278.81;;;16.41;44.36
12213;BME280;6169;44.158;22.788;2022-09-21T17:39:56;101280.63;;;16.13;44.91
12213;BME280;6169;44.158;22.788;2022-09-21T17:45:08;101296.31;;;16.18;44.60
12213;BME280;6169;44.158;22.788;2022-09-21T17:50:21;101303.16;;;15.98;45.38
12213;BME280;6169;44.158;22.788;2022-09-21T17:55:25;101304.69;;;15.55;46.14
12213;BME280;6169;44.158;22.788;2022-09-21T18:00:36;101309.88;;;15.57;46.68
12213;BME280;6169;44.158;22.788;2022-09-21T18:05:46;101320.91;;;15.45;47.23
12213;BME280;6169;44.158;22.788;2022-09-21T18:10:58;101321.13;;;15.72;46.90
12213;BME280;6169;44.158;22.788;2022-09-21T18:16:17;101321.13;;;15.72;46.84
12213;BME280;6169;44.158;22.788;2022-09-21T18:21:24;101318.06;;;15.68;46.46
12213;BME280;6169;44.158;22.788;2022-09-21T18:26:28;101323.59;;;15.74;45.83
12213;BME280;6169;44.158;22.788;2022-09-21T18:31:40;101327.72;;;15.59;46.98
12213;BME280;6169;44.158;22.788;2022-09-21T18:36:50;101325.22;;;15.41;47.65
12213;BME280;6169;44.158;22.788;2022-09-21T18:42:15;101331.84;;;15.62;47.23
12213;BME280;6169;44.158;22.788;2022-09-21T18:47:28;101335.91;;;15.42;47.88
12213;BME280;6169;44.158;22.788;2022-09-21T18:52:45;101346.94;;;15.02;48.86
12213;BME280;6169;44.158;22.788;2022-09-21T18:57:53;101337.41;;;15.33;47.86
12213;BME280;6169;44.158;22.788;2022-09-21T19:02:57;101339.13;;;15.22;48.30
12213;BME280;6169;44.158;22.788;2022-09-21T19:08:05;101289.00;;;14.88;48.96
12213;BME280;6169;44.158;22.788;2022-09-21T19:13:29;101341.19;;;15.15;48.47
12213;BME280;6169;44.158;22.788;2022-09-21T19:18:43;101333.06;;;15.03;49.66
12213;BME280;6169;44.158;22.788;2022-09-21T19:23:59;101326.78;;;14.91;50.05
12213;BME280;6169;44.158;22.788;2022-09-21T19:34:36;101324.94;;;14.80;50.11
12213;BME280;6169;44.158;22.788;2022-09-21T19:39:39;101324.50;;;14.59;50.95
12213;BME280;6169;44.158;22.788;2022-09-21T19:44:56;101319.72;;;14.67;50.61
12213;BME280;6169;44.158;22.788;2022-09-21T19:50:13;101317.13;;;14.60;50.73
12213;BME280;6169;44.158;22.788;2022-09-21T19:55:19;101326.09;;;14.32;51.93
12213;BME280;6169;44.158;22.788;2022-09-21T20:00:40;101322.09;;;14.63;51.29
12213;BME280;6169;44.158;22.788;2022-09-21T20:05:52;101323.50;;;14.02;53.23
12213;BME280;6169;44.158;22.788;2022-09-21T20:11:10;101325.13;;;14.38;52.71
12213;BME280;6169;44.158;22.788;2022-09-21T20:16:27;101329.63;;;14.44;52.23
12213;BME280;6169;44.158;22.788;2022-09-21T20:21:38;101323.31;;;14.55;51.57
12213;BME280;6169;44.158;22.788;2022-09-21T20:26:41;101326.84;;;14.68;51.07
12213;BME280;6169;44.158;22.788;2022-09-21T20:31:45;101330.84;;;14.36;52.71
12213;BME280;6169;44.158;22.788;2022-09-21T20:36:50;101342.13;;;14.40;52.27
12213;BME280;6169;44.158;22.788;2022-09-21T20:41:52;101348.84;;;14.49;51.67
12213;BME280;6169;44.158;22.788;2022-09-21T20:46:54;101354.38;;;14.90;51.31
12213;BME280;6169;44.158;22.788;2022-09-21T20:51:58;101349.88;;;14.72;50.95
12213;BME280;6169;44.158;22.788;2022-09-21T20:57:01;101349.72;;;15.19;49.40
12213;BME280;6169;44.158;22.788;2022-09-21T21:02:03;101342.94;;;15.21;49.03
12213;BME280;6169;44.158;22.788;2022-09-21T21:07:08;101343.63;;;14.59;50.39
12213;BME280;6169;44.158;22.788;2022-09-21T21:12:11;101344.22;;;14.62;50.96
12213;BME280;6169;44.158;22.788;2022-09-21T21:17:13;101343.19;;;14.39;51.83
12213;BME280;6169;44.158;22.788;2022-09-21T21:22:17;101342.41;;;14.79;51.08
12213;BME280;6169;44.158;22.788;2022-09-21T21:27:21;101340.09;;;14.47;52.04
12213;BME280;6169;44.158;22.788;2022-09-21T21:32:25;101335.63;;;14.18;52.27
12213;BME280;6169;44.158;22.788;2022-09-21T21:37:29;101185.09;;;13.27;51.77
12213;BME280;6169;44.158;22.788;2022-09-21T21:42:32;101344.28;;;14.14;51.94
12213;BME280;6169;44.158;22.788;2022-09-21T21:47:34;101344.72;;;14.35;51.78
12213;BME280;6169;44.158;22.788;2022-09-21T21:52:38;101293.72;;;13.77;52.45
12213;BME280;6169;44.158;22.788;2022-09-21T21:57:40;101338.38;;;13.94;53.17
12213;BME280;6169;44.158;22.788;2022-09-21T22:02:42;101335.50;;;13.89;53.00
12213;BME280;6169;44.158;22.788;2022-09-21T22:07:47;101327.94;;;13.91;53.43
12213;BME280;6169;44.158;22.788;2022-09-21T22:12:50;101326.84;;;13.92;53.24
12213;BME280;6169;44.158;22.788;2022-09-21T22:17:53;101317.91;;;13.61;54.55
12213;BME280;6169;44.158;22.788;2022-09-21T22:22:56;101321.41;;;13.80;54.25
12213;BME280;6169;44.158;22.788;2022-09-21T22:27:59;101310.94;;;13.77;54.47
12213;BME280;6169;44.158;22.788;2022-09-21T22:33:02;101324.13;;;13.92;53.92
12213;BME280;6169;44.158;22.788;2022-09-21T22:38:07;101316.28;;;13.84;54.47
12213;BME280;6169;44.158;22.788;2022-09-21T22:43:11;101325.28;;;13.96;53.25
12213;BME280;6169;44.158;22.788;2022-09-21T22:48:13;101321.03;;;14.00;52.75
12213;BME280;6169;44.158;22.788;2022-09-21T22:53:18;101323.41;;;14.08;52.92
12213;BME280;6169;44.158;22.788;2022-09-21T22:58:20;101319.72;;;14.03;53.25
12213;BME280;6169;44.158;22.788;2022-09-21T23:03:22;101329.81;;;14.02;52.02
12213;BME280;6169;44.158;22.788;2022-09-21T23:08:26;101321.50;;;13.97;52.82
12213;BME280;6169;44.158;22.788;2022-09-21T23:13:29;101316.81;;;13.51;54.03
12213;BME280;6169;44.158;22.788;2022-09-21T23:18:32;101320.09;;;13.95;52.93
12213;BME280;6169;44.158;22.788;2022-09-21T23:23:36;101313.00;;;13.40;54.21
12213;BME280;6169;44.158;22.788;2022-09-21T23:28:39;101313.53;;;13.60;53.00
12213;BME280;6169;44.158;22.788;2022-09-21T23:33:44;101318.28;;;13.77;52.49
12213;BME280;6169;44.158;22.788;2022-09-21T23:38:48;101324.34;;;13.79;52.65
12213;BME280;6169;44.158;22.788;2022-09-21T23:43:52;101315.72;;;13.94;52.39
12213;BME280;6169;44.158;22.788;2022-09-21T23:48:55;101312.97;;;13.82;53.11
12213;BME280;6169;44.158;22.788;2022-09-21T23:53:59;101307.03;;;13.85;53.32
12213;BME280;6169;44.158;22.788;2022-09-21T23:59:01;101302.91;;;13.82;53.46
